createdAt,value
2023-03-15T00:00:19.494Z,2.40
2023-03-15T00:02:46.057Z,2.00
2023-03-15T00:05:13.045Z,1.33
2023-03-15T00:07:39.501Z,1.58
2023-03-15T00:10:06.309Z,1.15
2023-03-15T00:12:34.411Z,1.20
2023-03-15T00:15:00.892Z,1.20
2023-03-15T00:17:27.942Z,0.95
2023-03-15T00:19:54.474Z,1.00
2023-03-15T00:22:23.187Z,1.27
2023-03-15T00:24:49.730Z,1.67
2023-03-15T00:27:16.228Z,1.60
2023-03-15T00:29:42.717Z,1.33
2023-03-15T00:32:09.440Z,1.15
2023-03-15T00:34:35.887Z,1.15
2023-03-15T00:37:02.395Z,1.88
2023-03-15T00:39:28.884Z,1.05
2023-03-15T00:41:56.931Z,1.63
2023-03-15T00:44:24.562Z,1.58
2023-03-15T00:46:51.185Z,1.65
2023-03-15T00:49:18.225Z,1.73
2023-03-15T00:51:44.706Z,1.75
2023-03-15T00:54:13.784Z,0.90
2023-03-15T00:56:41.256Z,1.30
2023-03-15T00:59:07.736Z,0.85
2023-03-15T01:01:34.210Z,1.45
2023-03-15T01:04:03.595Z,0.90
2023-03-15T01:06:30.248Z,1.58
2023-03-15T01:08:58.860Z,0.77
2023-03-15T01:11:27.245Z,1.77
2023-03-15T01:13:55.793Z,1.23
2023-03-15T01:16:23.389Z,1.52
2023-03-15T01:18:51.625Z,1.27
2023-03-15T01:21:19.822Z,0.90
2023-03-15T01:23:47.423Z,1.02
2023-03-15T01:26:15.486Z,1.42
2023-03-15T01:28:43.328Z,1.08
2023-03-15T01:31:17.231Z,1.83
2023-03-15T01:33:44.497Z,1.25
2023-03-15T01:36:11.633Z,1.42
2023-03-15T01:38:38.273Z,1.50
2023-03-15T01:41:04.930Z,1.85
2023-03-15T01:43:32.210Z,1.40
2023-03-15T01:46:02.018Z,1.48
2023-03-15T01:48:44.798Z,1.52
2023-03-15T01:51:31.788Z,0.98
2023-03-15T01:54:08.720Z,1.35
2023-03-15T01:56:36.718Z,1.30
2023-03-15T01:59:05.255Z,1.10
2023-03-15T02:01:32.868Z,1.20
2023-03-15T02:04:08.855Z,1.00
2023-03-15T02:06:38.967Z,1.45
2023-03-15T02:09:09.364Z,1.05
2023-03-15T02:11:38.790Z,1.73
2023-03-15T02:14:05.872Z,1.50
2023-03-15T02:16:34.069Z,1.60
2023-03-15T02:19:16.249Z,1.50
2023-03-15T02:21:55.732Z,1.30
2023-03-15T02:24:58.166Z,1.30
2023-03-15T02:27:32.408Z,1.23
2023-03-15T02:29:59.100Z,1.58
2023-03-15T02:32:25.683Z,1.33
2023-03-15T02:34:52.188Z,1.20
2023-03-15T02:37:18.621Z,1.02
2023-03-15T02:39:46.023Z,1.08
2023-03-15T02:42:12.747Z,1.30
2023-03-15T02:44:40.265Z,1.67
2023-03-15T02:47:28.247Z,1.00
2023-03-15T02:49:54.891Z,2.10
2023-03-15T02:52:22.499Z,0.95
2023-03-15T02:54:49.291Z,1.80
2023-03-15T02:57:17.542Z,1.55
2023-03-15T02:59:45.676Z,1.30
2023-03-15T03:02:13.161Z,1.20
2023-03-15T03:04:41.787Z,1.10
2023-03-15T03:07:08.510Z,1.35
2023-03-15T03:09:43.909Z,1.77
2023-03-15T03:12:11.231Z,1.45
2023-03-15T03:14:38.418Z,1.02
2023-03-15T03:17:09.914Z,1.10
2023-03-15T03:19:38.429Z,1.27
2023-03-15T03:22:04.977Z,1.20
2023-03-15T03:24:31.469Z,1.27
2023-03-15T03:26:58.196Z,0.93
2023-03-15T03:29:28.880Z,1.40
2023-03-15T03:31:58.245Z,0.95
2023-03-15T03:34:25.829Z,1.10
2023-03-15T03:36:52.421Z,1.30
2023-03-15T03:39:29.236Z,1.60
2023-03-15T03:41:59.312Z,1.13
2023-03-15T03:44:25.880Z,1.48
2023-03-15T03:46:52.366Z,0.85
2023-03-15T03:49:18.816Z,1.35
2023-03-15T03:51:46.228Z,1.42
2023-03-15T03:54:12.743Z,1.23
2023-03-15T03:56:39.797Z,1.20
2023-03-15T03:59:06.361Z,1.33
2023-03-15T04:01:45.247Z,1.30
2023-03-15T04:04:15.082Z,1.17
2023-03-15T04:06:46.126Z,1.58
2023-03-15T04:09:16.466Z,1.88
2023-03-15T04:11:44.926Z,1.15
2023-03-15T04:14:12.683Z,0.85
2023-03-15T04:16:40.805Z,0.93
2023-03-15T04:19:09.726Z,1.30
2023-03-15T04:21:37.078Z,1.35
2023-03-15T04:24:39.723Z,1.90
2023-03-15T04:27:18.309Z,1.90
2023-03-15T04:30:05.213Z,1.33
2023-03-15T04:32:42.502Z,1.25
2023-03-15T04:35:20.008Z,1.15
2023-03-15T04:38:00.212Z,1.38
2023-03-15T04:40:45.475Z,1.50
2023-03-15T04:43:37.770Z,1.17
2023-03-15T04:46:17.581Z,0.98
2023-03-15T04:49:10.286Z,1.30
2023-03-15T04:52:02.860Z,0.95
2023-03-15T04:54:39.396Z,1.15
2023-03-15T04:57:31.883Z,1.17
2023-03-15T05:00:21.779Z,1.40
2023-03-15T05:03:17.354Z,1.95
2023-03-15T05:06:08.167Z,1.67
2023-03-15T05:08:54.393Z,1.48
2023-03-15T05:11:39.296Z,1.02
2023-03-15T05:14:11.039Z,2.47
2023-03-15T05:17:02.066Z,1.83
2023-03-15T05:19:44.355Z,1.73
2023-03-15T05:22:29.377Z,2.45
2023-03-15T05:25:12.589Z,1.92
2023-03-15T05:27:57.863Z,1.40
2023-03-15T05:30:33.003Z,1.25
2023-03-15T05:33:06.592Z,1.73
2023-03-15T05:35:39.062Z,1.30
2023-03-15T05:38:43.943Z,1.67
2023-03-15T05:41:44.234Z,1.10
2023-03-15T05:44:28.217Z,1.88
2023-03-15T05:47:23.926Z,1.95
2023-03-15T05:50:06.403Z,2.10
2023-03-15T05:52:52.237Z,1.45
2023-03-15T05:55:37.368Z,1.35
2023-03-15T05:58:22.706Z,1.75
2023-03-15T06:00:55.345Z,1.48
2023-03-15T06:03:41.898Z,1.48
2023-03-15T06:06:16.397Z,1.40
2023-03-15T06:08:43.733Z,1.98
2023-03-15T06:11:10.266Z,1.67
2023-03-15T06:13:37.125Z,1.88
2023-03-15T06:16:09.257Z,1.75
2023-03-15T06:18:40.922Z,1.30
2023-03-15T06:21:08.570Z,1.63
2023-03-15T06:23:35.247Z,1.40
2023-03-15T06:26:01.707Z,1.58
2023-03-15T06:28:31.284Z,1.17
2023-03-15T06:31:07.103Z,1.55
2023-03-15T06:33:38.396Z,1.60
2023-03-15T06:36:07.849Z,1.30
2023-03-15T06:38:34.517Z,1.25
2023-03-15T06:41:01.215Z,1.23
2023-03-15T06:43:28.761Z,2.08
2023-03-15T06:45:56.812Z,1.33
2023-03-15T06:48:23.477Z,1.73
2023-03-15T06:50:50.440Z,1.23
2023-03-15T06:53:17.780Z,1.55
2023-03-15T06:55:45.385Z,1.67
2023-03-15T06:58:12.260Z,1.77
2023-03-15T07:00:38.789Z,2.35
2023-03-15T07:03:05.260Z,1.92
2023-03-15T07:05:31.799Z,1.58
2023-03-15T07:07:58.417Z,2.40
2023-03-15T07:10:25.256Z,1.38
2023-03-15T07:12:51.731Z,1.23
2023-03-15T07:15:18.253Z,1.20
2023-03-15T07:17:44.730Z,1.63
2023-03-15T07:20:11.730Z,1.92
2023-03-15T07:22:38.663Z,1.42
2023-03-15T07:25:07.379Z,1.42
2023-03-15T07:27:33.935Z,1.63
2023-03-15T07:30:01.060Z,1.67
2023-03-15T07:32:27.664Z,1.50
2023-03-15T07:34:58.142Z,1.83
2023-03-15T07:37:24.624Z,2.22
2023-03-15T07:39:51.099Z,1.55
2023-03-15T07:42:17.562Z,2.42
2023-03-15T07:44:49.864Z,2.10
2023-03-15T07:47:16.343Z,1.95
2023-03-15T07:49:42.801Z,1.85
2023-03-15T07:52:09.290Z,1.77
2023-03-15T07:54:35.772Z,2.92
2023-03-15T07:57:02.258Z,2.17
2023-03-15T07:59:28.986Z,1.60
2023-03-15T08:01:55.640Z,1.90
2023-03-15T08:04:22.193Z,2.25
2023-03-15T08:06:48.721Z,1.98
2023-03-15T08:09:15.182Z,1.85
2023-03-15T08:11:42.744Z,2.28
2023-03-15T08:14:10.520Z,1.85
2023-03-15T08:16:37.021Z,2.90
2023-03-15T08:19:03.565Z,2.03
2023-03-15T08:21:29.999Z,2.20
2023-03-15T08:23:56.437Z,2.42
2023-03-15T08:26:22.934Z,2.97
2023-03-15T08:28:49.392Z,1.90
2023-03-15T08:31:16.156Z,2.67
2023-03-15T08:33:42.667Z,2.58
2023-03-15T08:36:09.383Z,3.47
2023-03-15T08:38:36.012Z,4.25
2023-03-15T08:41:03.489Z,2.75
2023-03-15T08:43:30.067Z,2.72
2023-03-15T08:46:01.161Z,3.25
2023-03-15T08:48:28.383Z,4.20
2023-03-15T08:50:54.886Z,3.53
2023-03-15T08:53:21.361Z,4.13
2023-03-15T08:55:49.360Z,3.42
2023-03-15T08:58:15.804Z,3.50
2023-03-15T09:00:42.264Z,4.25
2023-03-15T09:03:08.735Z,3.40
2023-03-15T09:05:36.253Z,3.60
2023-03-15T09:08:02.752Z,3.35
2023-03-15T09:10:29.272Z,3.00
2023-03-15T09:12:55.896Z,2.63
2023-03-15T09:15:22.494Z,2.40
2023-03-15T09:17:50.955Z,2.30
2023-03-15T09:20:19.172Z,2.65
2023-03-15T09:22:55.241Z,2.35
2023-03-15T09:25:22.666Z,2.10
2023-03-15T09:27:49.556Z,2.60
2023-03-15T09:30:16.366Z,2.35
2023-03-15T09:32:44.166Z,2.20
2023-03-15T09:35:14.323Z,2.42
2023-03-15T09:37:42.332Z,1.92
2023-03-15T09:40:29.242Z,1.80
2023-03-15T09:43:02.367Z,2.10
2023-03-15T09:45:40.104Z,2.20
2023-03-15T09:48:11.489Z,2.33
2023-03-15T09:50:47.875Z,2.10
2023-03-15T09:53:22.352Z,2.50
2023-03-15T09:55:49.743Z,2.72
2023-03-15T09:58:32.892Z,2.45
2023-03-15T10:01:05.372Z,2.30
2023-03-15T10:03:50.850Z,2.10
2023-03-15T10:06:20.575Z,1.83
2023-03-15T10:08:47.524Z,2.10
2023-03-15T10:11:32.684Z,1.90
2023-03-15T10:14:18.636Z,2.28
2023-03-15T10:16:50.021Z,2.47
2023-03-15T10:19:29.269Z,2.10
2023-03-15T10:22:12.886Z,2.15
2023-03-15T10:24:50.759Z,1.90
2023-03-15T10:27:21.436Z,1.70
2023-03-15T10:29:49.488Z,2.00
2023-03-15T10:32:18.461Z,1.80
2023-03-15T10:34:48.671Z,1.73
2023-03-15T10:37:15.566Z,1.65
2023-03-15T10:39:46.773Z,1.75
2023-03-15T10:42:31.933Z,1.50
2023-03-15T10:45:00.051Z,1.67
2023-03-15T10:47:27.217Z,1.83
2023-03-15T10:49:59.103Z,1.45
2023-03-15T10:52:53.580Z,1.85
2023-03-15T10:55:29.006Z,1.40
2023-03-15T10:57:57.780Z,1.60
2023-03-15T11:00:31.106Z,1.50
2023-03-15T11:03:06.831Z,1.63
2023-03-15T11:05:48.331Z,1.50
2023-03-15T11:08:17.737Z,1.60
2023-03-15T11:10:46.133Z,1.80
2023-03-15T11:13:30.039Z,1.52
2023-03-15T11:16:04.564Z,1.23
2023-03-15T11:18:55.160Z,1.98
2023-03-15T11:21:29.004Z,2.78
2023-03-15T11:23:56.177Z,1.27
2023-03-15T11:26:33.236Z,1.83
2023-03-15T11:29:19.194Z,1.10
2023-03-15T11:31:45.786Z,4.38
2023-03-15T11:34:37.074Z,1.05
2023-03-15T11:37:14.778Z,0.80
2023-03-15T11:39:46.489Z,1.10
2023-03-15T11:42:24.669Z,0.88
2023-03-15T11:44:55.082Z,0.70
2023-03-15T11:47:36.039Z,0.70
2023-03-15T11:50:02.952Z,0.80
2023-03-15T11:52:29.690Z,0.90
2023-03-15T11:54:58.944Z,1.00
2023-03-15T11:57:28.318Z,0.80
2023-03-15T11:59:55.994Z,0.90
2023-03-15T12:02:22.973Z,1.30
2023-03-15T12:04:50.969Z,1.95
2023-03-15T12:07:17.354Z,0.85
2023-03-15T12:09:52.701Z,1.00
2023-03-15T12:12:25.104Z,0.90
2023-03-15T12:15:07.320Z,0.98
2023-03-15T12:17:40.321Z,0.95
2023-03-15T12:20:11.938Z,0.97
2023-03-15T12:22:42.180Z,0.90
2023-03-15T12:25:13.598Z,0.95
2023-03-15T12:27:48.064Z,1.00
2023-03-15T12:30:40.619Z,1.48
2023-03-15T12:33:18.512Z,1.92
2023-03-15T12:35:45.209Z,1.98
2023-03-15T12:38:15.436Z,2.78
2023-03-15T12:40:53.237Z,1.20
2023-03-15T12:43:45.508Z,1.55
2023-03-15T12:46:37.003Z,1.35
2023-03-15T12:49:26.465Z,0.95
2023-03-15T12:52:04.337Z,1.05
2023-03-15T12:54:37.572Z,1.30
2023-03-15T12:57:05.101Z,1.15
2023-03-15T12:59:32.650Z,1.10
2023-03-15T13:02:00.966Z,1.00
2023-03-15T13:04:28.910Z,0.95
2023-03-15T13:07:10.240Z,1.10
2023-03-15T13:09:56.726Z,1.00
2023-03-15T13:12:41.648Z,0.90
2023-03-15T13:15:10.009Z,2.30
2023-03-15T13:17:51.201Z,1.45
2023-03-15T13:20:40.871Z,1.00
2023-03-15T13:23:17.040Z,0.93
2023-03-15T13:26:08.555Z,0.95
2023-03-15T13:28:48.725Z,1.65
2023-03-15T13:31:22.204Z,1.23
2023-03-15T13:33:50.599Z,1.30
2023-03-15T13:36:20.489Z,1.23
2023-03-15T13:38:50.604Z,1.42
2023-03-15T13:41:21.976Z,1.27
2023-03-15T13:43:49.539Z,1.30
2023-03-15T13:46:18.152Z,1.17
2023-03-15T13:48:46.071Z,1.30
2023-03-15T13:51:25.918Z,1.27
2023-03-15T13:53:55.968Z,1.33
2023-03-15T13:56:48.977Z,1.42
2023-03-15T13:59:16.144Z,1.13
2023-03-15T14:01:43.122Z,1.30
2023-03-15T14:04:17.413Z,1.38
2023-03-15T14:06:45.756Z,1.08
2023-03-15T14:09:24.120Z,1.23
2023-03-15T14:12:06.009Z,1.15
2023-03-15T14:14:36.981Z,1.10
2023-03-15T14:17:08.817Z,0.98
2023-03-15T14:19:35.944Z,1.10
2023-03-15T14:22:05.203Z,1.33
2023-03-15T14:24:42.893Z,0.80
2023-03-15T14:27:15.100Z,1.08
2023-03-15T14:29:48.046Z,1.15
2023-03-15T14:32:29.712Z,1.00
2023-03-15T14:35:08.009Z,1.08
2023-03-15T14:37:42.373Z,1.00
2023-03-15T14:40:27.860Z,1.13
2023-03-15T14:42:54.589Z,1.05
2023-03-15T14:45:22.297Z,1.63
2023-03-15T14:47:58.821Z,1.42
2023-03-15T14:50:33.383Z,1.38
2023-03-15T14:52:59.967Z,1.20
2023-03-15T14:55:30.549Z,1.42
2023-03-15T14:57:57.141Z,1.50
2023-03-15T15:00:24.788Z,1.67
2023-03-15T15:02:53.193Z,1.63
2023-03-15T15:05:28.802Z,1.77
2023-03-15T15:08:03.281Z,2.08
2023-03-15T15:10:30.967Z,1.50
2023-03-15T15:13:06.051Z,1.20
2023-03-15T15:15:40.776Z,1.13
2023-03-15T15:18:18.223Z,1.80
2023-03-15T15:20:45.512Z,1.67
2023-03-15T15:23:17.923Z,1.60
2023-03-15T15:25:46.519Z,2.53
2023-03-15T15:28:15.793Z,2.25
2023-03-15T15:33:15.185Z,3.20
2023-03-15T15:35:41.700Z,2.38
2023-03-15T15:38:12.082Z,2.03
2023-03-15T15:40:39.134Z,1.92
2023-03-15T15:43:06.217Z,3.33
2023-03-15T15:45:35.347Z,3.13
2023-03-15T15:48:06.133Z,1.50
2023-03-15T15:50:36.581Z,1.50
2023-03-15T15:53:05.098Z,2.35
2023-03-15T15:55:34.197Z,3.28
2023-03-15T15:58:01.172Z,1.30
2023-03-15T16:00:28.522Z,1.50
2023-03-15T16:02:56.124Z,1.80
2023-03-15T16:05:25.353Z,2.28
2023-03-15T16:07:52.434Z,1.60
2023-03-15T16:10:27.343Z,1.45
2023-03-15T16:12:54.962Z,1.00
2023-03-15T16:15:21.566Z,1.17
2023-03-15T16:17:48.066Z,1.30
2023-03-15T16:20:15.478Z,1.40
2023-03-15T16:22:44.864Z,1.15
2023-03-15T16:25:16.368Z,1.20
2023-03-15T16:27:42.861Z,1.00
2023-03-15T16:30:23.510Z,0.80
2023-03-15T16:32:54.924Z,1.15
2023-03-15T16:35:23.201Z,1.02
2023-03-15T16:37:56.179Z,1.10
2023-03-15T16:40:27.087Z,1.10
2023-03-15T16:42:53.620Z,0.80
2023-03-15T16:45:20.398Z,1.00
2023-03-15T16:47:47.076Z,0.88
2023-03-15T16:50:13.586Z,1.40
2023-03-15T16:52:42.061Z,0.73
2023-03-15T16:55:15.926Z,1.10
2023-03-15T16:57:43.219Z,0.70
2023-03-15T17:00:17.148Z,0.73
2023-03-15T17:05:19.063Z,0.63
2023-03-15T17:07:47.323Z,0.60
2023-03-15T17:10:21.507Z,0.68
2023-03-15T17:12:48.146Z,0.60
2023-03-15T17:15:14.724Z,0.52
2023-03-15T17:17:41.277Z,0.65
2023-03-15T17:20:12.871Z,0.85
2023-03-15T17:22:42.552Z,0.60
2023-03-15T17:25:09.492Z,0.98
2023-03-15T17:27:39.590Z,0.90
2023-03-15T17:30:15.533Z,0.85
2023-03-15T17:32:42.166Z,0.80
2023-03-15T17:35:09.709Z,0.60
2023-03-15T17:37:38.113Z,0.60
2023-03-15T17:40:12.362Z,1.30
2023-03-15T17:42:39.608Z,1.00
2023-03-15T17:45:20.762Z,1.10
2023-03-15T17:47:48.284Z,1.50
2023-03-15T17:50:14.901Z,1.98
2023-03-15T17:52:43.300Z,1.20
2023-03-15T17:55:18.223Z,1.20
2023-03-15T17:57:54.089Z,1.40
2023-03-15T18:00:22.136Z,1.88
2023-03-15T18:02:54.883Z,1.85
2023-03-15T18:05:24.838Z,1.52
2023-03-15T18:07:58.706Z,1.65
2023-03-15T18:10:30.520Z,1.52
2023-03-15T18:12:56.989Z,1.85
2023-03-15T18:15:23.916Z,1.40
2023-03-15T18:17:50.842Z,1.15
2023-03-15T18:20:18.481Z,1.20
2023-03-15T18:22:45.267Z,1.40
2023-03-15T18:25:20.800Z,1.33
2023-03-15T18:27:47.807Z,1.50
2023-03-15T18:30:21.973Z,1.60
2023-03-15T18:32:48.828Z,2.50
2023-03-15T18:35:17.945Z,2.67
2023-03-15T18:37:45.135Z,3.17
2023-03-15T18:40:13.692Z,2.53
2023-03-15T18:42:41.146Z,2.17
2023-03-15T18:45:10.716Z,1.63
2023-03-15T18:47:37.219Z,1.70
2023-03-15T18:50:10.634Z,1.00
2023-03-15T18:52:37.309Z,1.48
2023-03-15T18:55:04.219Z,1.25
2023-03-15T18:57:30.743Z,1.73
2023-03-15T18:59:57.250Z,1.48
2023-03-15T19:02:23.727Z,2.25
2023-03-15T19:04:51.083Z,1.90
2023-03-15T19:07:17.818Z,2.10
2023-03-15T19:09:44.701Z,1.85
2023-03-15T19:12:11.299Z,1.83
2023-03-15T19:14:37.834Z,2.13
2023-03-15T19:17:04.463Z,1.73
2023-03-15T19:19:31.362Z,2.05
2023-03-15T19:21:58.781Z,1.77
2023-03-15T19:24:25.281Z,2.30
2023-03-15T19:26:51.764Z,2.17
2023-03-15T19:29:18.214Z,1.70
2023-03-15T19:31:45.090Z,1.83
2023-03-15T19:34:11.558Z,1.40
2023-03-15T19:36:38.037Z,1.60
2023-03-15T19:39:06.632Z,1.70
2023-03-15T19:41:33.102Z,2.15
2023-03-15T19:43:59.614Z,1.88
2023-03-15T19:46:26.131Z,1.65
2023-03-15T19:48:52.783Z,1.63
2023-03-15T19:51:19.225Z,1.50
2023-03-15T19:53:45.689Z,1.67
2023-03-15T19:56:12.145Z,2.25
2023-03-15T19:58:38.638Z,1.90
2023-03-15T20:01:05.385Z,2.08
2023-03-15T20:03:34.774Z,2.63
2023-03-15T20:06:09.341Z,1.75
2023-03-15T20:08:36.116Z,1.30
2023-03-15T20:11:03.969Z,1.83
2023-03-15T20:13:31.283Z,2.83
2023-03-15T20:15:57.822Z,3.45
2023-03-15T20:18:24.375Z,1.60
2023-03-15T20:20:51.360Z,2.80
2023-03-15T20:23:18.823Z,2.03
2023-03-15T20:25:45.283Z,1.70
2023-03-15T20:28:11.802Z,2.25
2023-03-15T20:30:39.469Z,2.00
2023-03-15T20:33:06.047Z,2.03
2023-03-15T20:35:32.610Z,2.45
2023-03-15T20:38:06.454Z,2.30
2023-03-15T20:40:39.056Z,3.55
2023-03-15T20:43:05.921Z,3.80
2023-03-15T20:45:33.303Z,3.03
2023-03-15T20:48:00.861Z,2.90
2023-03-15T20:50:27.309Z,1.98
2023-03-15T20:52:53.853Z,2.50
2023-03-15T20:55:21.149Z,2.28
2023-03-15T20:57:47.628Z,2.65
2023-03-15T21:00:18.033Z,2.33
2023-03-15T21:02:45.868Z,2.33
2023-03-15T21:05:13.017Z,1.58
2023-03-15T21:07:40.875Z,1.35
2023-03-15T21:10:08.218Z,1.65
2023-03-15T21:12:34.705Z,1.33
2023-03-15T21:15:01.747Z,1.48
2023-03-15T21:17:28.237Z,1.10
2023-03-15T21:19:54.834Z,1.80
2023-03-15T21:22:21.331Z,1.13
2023-03-15T21:24:55.533Z,1.55
2023-03-15T21:27:25.979Z,1.40
2023-03-15T21:29:52.534Z,1.52
2023-03-15T21:32:19.009Z,1.23
2023-03-15T21:34:45.453Z,1.60
2023-03-15T21:37:11.986Z,1.55
2023-03-15T21:39:38.466Z,1.60
2023-03-15T21:42:05.081Z,1.60
2023-03-15T21:44:33.892Z,2.13
2023-03-15T21:47:01.945Z,2.08
2023-03-15T21:49:28.408Z,1.38
2023-03-15T21:51:54.846Z,1.60
2023-03-15T21:54:21.286Z,1.60
2023-03-15T21:56:47.757Z,1.30
2023-03-15T21:59:14.626Z,1.27
2023-03-15T22:01:41.710Z,1.45
2023-03-15T22:04:08.174Z,1.23
2023-03-15T22:06:34.710Z,1.60
2023-03-15T22:09:01.143Z,1.77
2023-03-15T22:11:27.645Z,1.48
2023-03-15T22:13:54.077Z,1.90
2023-03-15T22:16:20.831Z,1.38
2023-03-15T22:18:47.348Z,1.38
2023-03-15T22:21:13.814Z,1.58
2023-03-15T22:23:40.583Z,1.33
2023-03-15T22:26:07.128Z,1.45
2023-03-15T22:28:35.138Z,1.75
2023-03-15T22:31:01.650Z,1.50
2023-03-15T22:33:28.155Z,1.42
2023-03-15T22:35:56.608Z,1.60
2023-03-15T22:38:24.288Z,1.30
2023-03-15T22:40:50.802Z,1.50
2023-03-15T22:43:17.407Z,1.40
2023-03-15T22:45:43.863Z,1.52
2023-03-15T22:48:10.322Z,1.58
2023-03-15T22:50:36.804Z,1.45
2023-03-15T22:53:03.251Z,1.50
2023-03-15T22:55:29.678Z,1.60
2023-03-15T22:57:56.132Z,1.35
2023-03-15T23:00:23.725Z,1.50
2023-03-15T23:02:50.606Z,1.70
2023-03-15T23:05:19.386Z,1.60
2023-03-15T23:07:45.919Z,1.40
2023-03-15T23:10:12.405Z,1.67
2023-03-15T23:12:38.878Z,1.40
2023-03-15T23:15:05.835Z,1.60
2023-03-15T23:17:32.321Z,1.67
2023-03-15T23:19:59.001Z,1.60
2023-03-15T23:22:25.452Z,1.95
2023-03-15T23:24:51.985Z,1.70
2023-03-15T23:27:18.674Z,1.77
2023-03-15T23:29:54.241Z,1.83
2023-03-15T23:32:21.334Z,2.10
2023-03-15T23:34:48.050Z,1.70
2023-03-15T23:37:15.218Z,1.30
2023-03-15T23:39:42.159Z,1.73
2023-03-15T23:42:09.287Z,1.40
2023-03-15T23:44:35.749Z,1.43
2023-03-15T23:47:05.745Z,2.73
2023-03-15T23:49:32.836Z,1.10
2023-03-15T23:52:05.190Z,1.47
2023-03-15T23:54:39.153Z,1.65
2023-03-15T23:59:35.696Z,1.83
